Captain Jimmy T Moran — WDE6653 — position and weather

sailwx.info

Track history (hours):
 
Tides and Currents Weather Stations Pressure Air Temp Water Temp Dewpoint Dewpoint Depression Visibility Wind Speed Wind Dir Waves Ship Positions

Captain Jimmy T Moran

Owner: Moran Towing Corp, New Cannan, CT. More information available from US FCC via Universal Licensing System and Coast Guard Vessel Documentation Center.

Last reported at 2016-Jul-01 06:33 UTC. Time now 2016-Jul-01 08:12 UTC.
Position N 29°52' W 089°56'.

Length 26 m; draft 4.9 m.

Type: Tug. MMSI: 367382920.

Date/timePositionNaut miles runAvg speedWind from/ knotsBaromVisibWave heightAir tempDewpointWater temp
2016-Jul-01 06:33N 29°52' W 089°56'7 7.3
2016-Jul-01 05:33N 29°58' W 090°03'4 4.1
2016-Jul-01 04:33N 29°55' W 090°06'0 0.0
2016-Jul-01 03:33N 29°55' W 090°06'0 0.0
2016-Jul-01 02:33N 29°55' W 090°06'0 0.0
2016-Jul-01 01:33N 29°55' W 090°06'0 0.3
2016-Jul-01 00:34N 29°55' W 090°06'0 0.1
2016-Jun-30 23:31N 29°55' W 090°06'0 0.0
2016-Jun-30 21:31N 29°55' W 090°06'0 0.0
2016-Jun-30 20:32N 29°55' W 090°06'0 0.0
2016-Jun-30 19:33N 29°55' W 090°06'0 0.0
2016-Jun-30 18:34N 29°55' W 090°06'0 0.0
2016-Jun-30 17:31N 29°55' W 090°06'0 0.0
2016-Jun-30 16:33N 29°55' W 090°06'0 0.0
2016-Jun-30 15:33N 29°55' W 090°06'0 0.0
2016-Jun-30 14:31N 29°55' W 090°06'0 0.0
2016-Jun-30 13:33N 29°55' W 090°06'0 0.0
2016-Jun-30 12:33N 29°55' W 090°06'0 0.0
2016-Jun-30 11:33N 29°55' W 090°06'0 0.0
2016-Jun-30 10:33N 29°55' W 090°06'0 0.0
2016-Jun-30 09:32N 29°55' W 090°06'0 0.0
2016-Jun-30 08:33N 29°55' W 090°06'0 0.0
2016-Jun-30 07:33N 29°55' W 090°06'0 0.0
2016-Jun-30 06:33N 29°55' W 090°06'0 0.0
2016-Jun-30 05:32N 29°55' W 090°06'0 0.0
2016-Jun-30 04:33N 29°55' W 090°06'0 0.0
2016-Jun-30 03:31N 29°55' W 090°06'0 0.0
2016-Jun-30 02:32N 29°55' W 090°06'0 0.1
2016-Jun-30 00:33N 29°55' W 090°06'2 2.2
2016-Jun-29 23:33N 29°56' W 090°04'2 1.5
2016-Jun-29 22:33N 29°57' W 090°03'0 0.0
2016-Jun-29 21:33N 29°57' W 090°03'0 0.0
2016-Jun-29 20:33N 29°57' W 090°03'0 0.0
2016-Jun-29 14:11N 29°57' W 090°03'0 0.0
2016-Jun-29 13:33N 29°57' W 090°03'0 0.0
2016-Jun-29 12:33N 29°57' W 090°03'0 0.0
2016-Jun-29 11:33N 29°57' W 090°03'0 0.0
2016-Jun-29 10:33N 29°57' W 090°03'0 0.0
2016-Jun-29 09:33N 29°57' W 090°03'4 3.7
2016-Jun-29 08:34N 29°55' W 090°07'2 2.2
2016-Jun-29 07:33N 29°56' W 090°08'2 0.2
2016-Jun-28 21:33N 29°56' W 090°11'6 1.0
2016-Jun-28 15:33N 29°55' W 090°04'0 0.0
2016-Jun-28 14:33N 29°55' W 090°04'0 0.0
2016-Jun-28 13:33N 29°55' W 090°04'0 0.0
2016-Jun-28 12:33N 29°55' W 090°04'0 0.0
2016-Jun-28 11:34N 29°55' W 090°04'2 2.1
2016-Jun-28 10:32N 29°55' W 090°07'0 0.2
2016-Jun-28 09:33N 29°55' W 090°07'1 0.9
2016-Jun-28 08:33N 29°55' W 090°06'0 0.3
2016-Jun-28 07:33N 29°55' W 090°06'1 1.4
2016-Jun-28 06:33N 29°55' W 090°07'1 0.7
2016-Jun-28 04:30N 29°55' W 090°06'0 0.0
2016-Jun-28 03:34N 29°55' W 090°06'0 0.0
2016-Jun-28 02:33N 29°55' W 090°06'0 0.0
2016-Jun-28 01:33N 29°55' W 090°06'0 0.0
2016-Jun-28 00:33N 29°55' W 090°06'0 0.0
2016-Jun-27 23:33N 29°55' W 090°06'1 0.7
2016-Jun-27 22:33N 29°55' W 090°07'2 2.1
2016-Jun-27 21:33N 29°55' W 090°04'0 0.0
2016-Jun-27 20:34N 29°55' W 090°04'0 0.0
2016-Jun-27 19:33N 29°55' W 090°04'0 0.0
2016-Jun-27 18:33N 29°55' W 090°04'0 0.0
2016-Jun-27 17:33N 29°55' W 090°04'0 0.0
2016-Jun-27 16:34N 29°55' W 090°04'0 0.0
2016-Jun-27 15:33N 29°55' W 090°04'1 1.4
2016-Jun-27 14:33N 29°55' W 090°06'0 0.0
2016-Jun-27 13:33N 29°55' W 090°06'0 0.0
2016-Jun-27 12:33N 29°55' W 090°06'0 0.0
2016-Jun-27 11:33N 29°55' W 090°06'0 0.5
2016-Jun-27 10:33N 29°55' W 090°06'0 0.5
2016-Jun-27 09:33N 29°55' W 090°06'0 0.0
2016-Jun-27 08:34N 29°55' W 090°06'0 0.0
2016-Jun-27 07:34N 29°55' W 090°06'0 0.0
2016-Jun-27 06:33N 29°55' W 090°06'0 0.0
2016-Jun-27 05:34N 29°55' W 090°06'1 0.6
2016-Jun-27 04:34N 29°55' W 090°07'0 0.1
2016-Jun-27 03:33N 29°55' W 090°06'0 0.5
2016-Jun-27 02:33N 29°55' W 090°06'0 0.0
2016-Jun-27 01:33N 29°55' W 090°06'0 0.0
2016-Jun-27 00:33N 29°55' W 090°06'0 0.0
2016-Jun-26 23:33N 29°55' W 090°06'0 0.0
2016-Jun-26 22:33N 29°55' W 090°06'0 0.0
2016-Jun-26 21:33N 29°55' W 090°06'0 0.0
2016-Jun-26 20:33N 29°55' W 090°06'0 0.0
2016-Jun-26 19:33N 29°55' W 090°06'0 0.0
2016-Jun-26 18:34N 29°55' W 090°06'0 0.0
2016-Jun-26 17:33N 29°55' W 090°06'2 2.3
2016-Jun-26 16:34N 29°56' W 090°04'1 1.1
2016-Jun-26 15:33N 29°57' W 090°03'0 0.0
2016-Jun-26 14:33N 29°57' W 090°03'0 0.0
2016-Jun-26 13:33N 29°57' W 090°03'0 0.0
2016-Jun-26 12:33N 29°57' W 090°03'0 0.0
2016-Jun-26 11:33N 29°57' W 090°03'0 0.0
2016-Jun-26 10:33N 29°57' W 090°03'0 0.0
2016-Jun-26 09:33N 29°57' W 090°03'0 0.0
2016-Jun-26 08:33N 29°57' W 090°03'0 0.0
2016-Jun-26 07:33N 29°57' W 090°03'0 0.0
2016-Jun-26 06:33N 29°57' W 090°03'0 0.0
2016-Jun-26 05:33N 29°57' W 090°03'0 0.0
2016-Jun-26 04:33N 29°57' W 090°03'0 0.0
2016-Jun-26 03:33N 29°57' W 090°03'0 0.0
2016-Jun-26 02:33N 29°57' W 090°03'0 0.0
2016-Jun-26 01:33N 29°57' W 090°03'0 0.0
2016-Jun-26 00:33N 29°57' W 090°03'0 0.0
2016-Jun-25 23:33N 29°57' W 090°03'0 0.0
2016-Jun-25 22:33N 29°57' W 090°03'0 0.0
2016-Jun-25 21:33N 29°57' W 090°03'0 0.0
2016-Jun-25 20:33N 29°57' W 090°03'0 0.0
2016-Jun-25 19:33N 29°57' W 090°03'0 0.0
2016-Jun-25 18:33N 29°57' W 090°03'0 0.0
2016-Jun-25 17:33N 29°57' W 090°03'0 0.0
2016-Jun-25 16:33N 29°57' W 090°03'0 0.0
2016-Jun-25 15:33N 29°57' W 090°03'0 0.0
2016-Jun-25 14:33N 29°57' W 090°03'0 0.0
2016-Jun-25 13:33N 29°57' W 090°03'0 0.0
2016-Jun-25 12:33N 29°57' W 090°03'0 0.0
2016-Jun-25 11:33N 29°57' W 090°03'0 0.0
2016-Jun-25 10:33N 29°57' W 090°03'0 0.0
2016-Jun-25 09:33N 29°57' W 090°03'0 0.0
2016-Jun-25 08:33N 29°57' W 090°03'0 0.0
2016-Jun-25 07:33N 29°57' W 090°03'0 0.0
2016-Jun-25 06:33N 29°57' W 090°03'0 0.0
2016-Jun-25 05:33N 29°57' W 090°03'0 0.0
2016-Jun-25 04:33N 29°57' W 090°03'0 0.0
2016-Jun-25 03:33N 29°57' W 090°03'0 0.0
2016-Jun-25 02:33N 29°57' W 090°03'0 0.0
2016-Jun-25 01:33N 29°57' W 090°03'  
Track history (hours):
 
Tides and Currents Weather Stations Pressure Air Temp Water Temp Dewpoint Dewpoint Depression Visibility Wind Speed Wind Dir Waves Ship Positions

Captain Jimmy T Moran

Owner: Moran Towing Corp, New Cannan, CT. More information available from US FCC via Universal Licensing System and Coast Guard Vessel Documentation Center.

Last reported at 2016-Jul-01 06:33 UTC. Time now 2016-Jul-01 08:12 UTC.
Position N 29°52' W 089°56'.

Length 26 m; draft 4.9 m.

Type: Tug. MMSI: 367382920.

Date/timePositionNaut miles runAvg speedWind from/ knotsBaromVisibWave heightAir tempDewpointWater temp
2016-Jul-01 06:33N 29°52' W 089°56'7 7.3
2016-Jul-01 05:33N 29°58' W 090°03'4 4.1
2016-Jul-01 04:33N 29°55' W 090°06'0 0.0
2016-Jul-01 03:33N 29°55' W 090°06'0 0.0
2016-Jul-01 02:33N 29°55' W 090°06'0 0.0
2016-Jul-01 01:33N 29°55' W 090°06'0 0.3
2016-Jul-01 00:34N 29°55' W 090°06'0 0.1
2016-Jun-30 23:31N 29°55' W 090°06'0 0.0
2016-Jun-30 21:31N 29°55' W 090°06'0 0.0
2016-Jun-30 20:32N 29°55' W 090°06'0 0.0
2016-Jun-30 19:33N 29°55' W 090°06'0 0.0
2016-Jun-30 18:34N 29°55' W 090°06'0 0.0
2016-Jun-30 17:31N 29°55' W 090°06'0 0.0
2016-Jun-30 16:33N 29°55' W 090°06'0 0.0
2016-Jun-30 15:33N 29°55' W 090°06'0 0.0
2016-Jun-30 14:31N 29°55' W 090°06'0 0.0
2016-Jun-30 13:33N 29°55' W 090°06'0 0.0
2016-Jun-30 12:33N 29°55' W 090°06'0 0.0
2016-Jun-30 11:33N 29°55' W 090°06'0 0.0
2016-Jun-30 10:33N 29°55' W 090°06'0 0.0
2016-Jun-30 09:32N 29°55' W 090°06'0 0.0
2016-Jun-30 08:33N 29°55' W 090°06'0 0.0
2016-Jun-30 07:33N 29°55' W 090°06'0 0.0
2016-Jun-30 06:33N 29°55' W 090°06'0 0.0
2016-Jun-30 05:32N 29°55' W 090°06'0 0.0
2016-Jun-30 04:33N 29°55' W 090°06'0 0.0
2016-Jun-30 03:31N 29°55' W 090°06'0 0.0
2016-Jun-30 02:32N 29°55' W 090°06'0 0.1
2016-Jun-30 00:33N 29°55' W 090°06'2 2.2
2016-Jun-29 23:33N 29°56' W 090°04'2 1.5
2016-Jun-29 22:33N 29°57' W 090°03'0 0.0
2016-Jun-29 21:33N 29°57' W 090°03'0 0.0
2016-Jun-29 20:33N 29°57' W 090°03'0 0.0
2016-Jun-29 14:11N 29°57' W 090°03'0 0.0
2016-Jun-29 13:33N 29°57' W 090°03'0 0.0
2016-Jun-29 12:33N 29°57' W 090°03'0 0.0
2016-Jun-29 11:33N 29°57' W 090°03'0 0.0
2016-Jun-29 10:33N 29°57' W 090°03'0 0.0
2016-Jun-29 09:33N 29°57' W 090°03'4 3.7
2016-Jun-29 08:34N 29°55' W 090°07'2 2.2
2016-Jun-29 07:33N 29°56' W 090°08'2 0.2
2016-Jun-28 21:33N 29°56' W 090°11'6 1.0
2016-Jun-28 15:33N 29°55' W 090°04'0 0.0
2016-Jun-28 14:33N 29°55' W 090°04'0 0.0
2016-Jun-28 13:33N 29°55' W 090°04'0 0.0
2016-Jun-28 12:33N 29°55' W 090°04'0 0.0
2016-Jun-28 11:34N 29°55' W 090°04'2 2.1
2016-Jun-28 10:32N 29°55' W 090°07'0 0.2
2016-Jun-28 09:33N 29°55' W 090°07'1 0.9
2016-Jun-28 08:33N 29°55' W 090°06'0 0.3
2016-Jun-28 07:33N 29°55' W 090°06'1 1.4
2016-Jun-28 06:33N 29°55' W 090°07'1 0.7
2016-Jun-28 04:30N 29°55' W 090°06'0 0.0
2016-Jun-28 03:34N 29°55' W 090°06'0 0.0
2016-Jun-28 02:33N 29°55' W 090°06'0 0.0
2016-Jun-28 01:33N 29°55' W 090°06'0 0.0
2016-Jun-28 00:33N 29°55' W 090°06'0 0.0
2016-Jun-27 23:33N 29°55' W 090°06'1 0.7
2016-Jun-27 22:33N 29°55' W 090°07'2 2.1
2016-Jun-27 21:33N 29°55' W 090°04'0 0.0
2016-Jun-27 20:34N 29°55' W 090°04'0 0.0
2016-Jun-27 19:33N 29°55' W 090°04'0 0.0
2016-Jun-27 18:33N 29°55' W 090°04'0 0.0
2016-Jun-27 17:33N 29°55' W 090°04'0 0.0
2016-Jun-27 16:34N 29°55' W 090°04'0 0.0
2016-Jun-27 15:33N 29°55' W 090°04'1 1.4
2016-Jun-27 14:33N 29°55' W 090°06'0 0.0
2016-Jun-27 13:33N 29°55' W 090°06'0 0.0
2016-Jun-27 12:33N 29°55' W 090°06'0 0.0
2016-Jun-27 11:33N 29°55' W 090°06'0 0.5
2016-Jun-27 10:33N 29°55' W 090°06'0 0.5
2016-Jun-27 09:33N 29°55' W 090°06'0 0.0
2016-Jun-27 08:34N 29°55' W 090°06'0 0.0
2016-Jun-27 07:34N 29°55' W 090°06'0 0.0
2016-Jun-27 06:33N 29°55' W 090°06'0 0.0
2016-Jun-27 05:34N 29°55' W 090°06'1 0.6
2016-Jun-27 04:34N 29°55' W 090°07'0 0.1
2016-Jun-27 03:33N 29°55' W 090°06'0 0.5
2016-Jun-27 02:33N 29°55' W 090°06'0 0.0
2016-Jun-27 01:33N 29°55' W 090°06'0 0.0
2016-Jun-27 00:33N 29°55' W 090°06'0 0.0
2016-Jun-26 23:33N 29°55' W 090°06'0 0.0
2016-Jun-26 22:33N 29°55' W 090°06'0 0.0
2016-Jun-26 21:33N 29°55' W 090°06'0 0.0
2016-Jun-26 20:33N 29°55' W 090°06'0 0.0
2016-Jun-26 19:33N 29°55' W 090°06'0 0.0
2016-Jun-26 18:34N 29°55' W 090°06'0 0.0
2016-Jun-26 17:33N 29°55' W 090°06'2 2.3
2016-Jun-26 16:34N 29°56' W 090°04'1 1.1
2016-Jun-26 15:33N 29°57' W 090°03'0 0.0
2016-Jun-26 14:33N 29°57' W 090°03'0 0.0
2016-Jun-26 13:33N 29°57' W 090°03'0 0.0
2016-Jun-26 12:33N 29°57' W 090°03'0 0.0
2016-Jun-26 11:33N 29°57' W 090°03'0 0.0
2016-Jun-26 10:33N 29°57' W 090°03'0 0.0
2016-Jun-26 09:33N 29°57' W 090°03'0 0.0
2016-Jun-26 08:33N 29°57' W 090°03'0 0.0
2016-Jun-26 07:33N 29°57' W 090°03'0 0.0
2016-Jun-26 06:33N 29°57' W 090°03'0 0.0
2016-Jun-26 05:33N 29°57' W 090°03'0 0.0
2016-Jun-26 04:33N 29°57' W 090°03'0 0.0
2016-Jun-26 03:33N 29°57' W 090°03'0 0.0
2016-Jun-26 02:33N 29°57' W 090°03'0 0.0
2016-Jun-26 01:33N 29°57' W 090°03'0 0.0
2016-Jun-26 00:33N 29°57' W 090°03'0 0.0
2016-Jun-25 23:33N 29°57' W 090°03'0 0.0
2016-Jun-25 22:33N 29°57' W 090°03'0 0.0
2016-Jun-25 21:33N 29°57' W 090°03'0 0.0
2016-Jun-25 20:33N 29°57' W 090°03'0 0.0
2016-Jun-25 19:33N 29°57' W 090°03'0 0.0
2016-Jun-25 18:33N 29°57' W 090°03'0 0.0
2016-Jun-25 17:33N 29°57' W 090°03'0 0.0
2016-Jun-25 16:33N 29°57' W 090°03'0 0.0
2016-Jun-25 15:33N 29°57' W 090°03'0 0.0
2016-Jun-25 14:33N 29°57' W 090°03'0 0.0
2016-Jun-25 13:33N 29°57' W 090°03'0 0.0
2016-Jun-25 12:33N 29°57' W 090°03'0 0.0
2016-Jun-25 11:33N 29°57' W 090°03'0 0.0
2016-Jun-25 10:33N 29°57' W 090°03'0 0.0
2016-Jun-25 09:33N 29°57' W 090°03'0 0.0
2016-Jun-25 08:33N 29°57' W 090°03'0 0.0
2016-Jun-25 07:33N 29°57' W 090°03'0 0.0
2016-Jun-25 06:33N 29°57' W 090°03'0 0.0
2016-Jun-25 05:33N 29°57' W 090°03'0 0.0
2016-Jun-25 04:33N 29°57' W 090°03'0 0.0
2016-Jun-25 03:33N 29°57' W 090°03'0 0.0
2016-Jun-25 02:33N 29°57' W 090°03'0 0.0
2016-Jun-25 01:33N 29°57' W 090°03'  

Dump ship's entire track history